Time;durP1;ratioP1;P1;durP2;ratioP2;P2;SDS_P1;SDS_P2;PMS_P1;PMS_P2;Temp;Humidity;BMP_temperature;BMP_pressure;BME280_temperature;BME280_humidity;BME280_pressure;Samples;Min_cycle;Max_cycle;Signal;HPM_P1;HPM_P2
2023/12/20 00:00:04;;;;;;;;;;;;;;;;;;5096046;28;20001;-80
2023/12/20 00:02:29;;;;;;;;;;;;;;;;;;5094795;28;19908;-80
2023/12/20 00:04:54;;;;;;;;;;;;;;;;;;5096652;28;19919;-80
2023/12/20 00:07:19;;;;;;;;;;;;;;;;;;5095816;28;19912;-80
2023/12/20 00:09:44;;;;;;;;;;;;;;;;;;5094625;28;20288;-81
2023/12/20 00:12:09;;;;;;;;;;;;;;;;;;5095947;28;19940;-80
2023/12/20 00:14:34;;;;;;;;;;;;;;;;;;5096223;28;19966;-80
2023/12/20 00:16:59;;;;;;;;;;;;;;;;;;5094643;28;19995;-81
2023/12/20 00:19:24;;;;;;;;;;;;;;;;;;5093923;28;20015;-80
2023/12/20 00:21:50;;;;;;;;;;;;;;;;;;5095209;28;19912;-80
2023/12/20 00:24:15;;;;;;;;;;;;;;;;;;5093221;28;20288;-81
2023/12/20 00:26:40;;;;;;;;;;;;;;;;;;5093897;28;19925;-80
2023/12/20 00:29:05;;;;;;;;;;;;;;;;;;5094969;28;19912;-80
2023/12/20 00:31:30;;;;;;;;;;;;;;;;;;5094689;28;19908;-80
2023/12/20 00:33:56;;;;;;;;;;;;;;;;;;5094686;28;19969;-81
2023/12/20 00:36:21;;;;;;;;;;;;;;;;;;5095257;28;20002;-80
2023/12/20 00:38:46;;;;;;;;;;;;;;;;;;5093284;28;19908;-80
2023/12/20 00:41:11;;;;;;;;;;;;;;;;;;5093142;28;19908;-80
2023/12/20 00:43:36;;;;;;;;;;;;;;;;;;5093457;28;19948;-80
2023/12/20 00:46:02;;;;;;;;;;;;;;;;;;5093048;28;19912;-80
2023/12/20 00:48:27;;;;;;;;;;;;;;;;;;5093127;28;19924;-80
2023/12/20 00:50:52;;;;;;;;;;;;;;;;;;5093284;28;20321;-81
2023/12/20 00:53:17;;;;;;;;;;;;;;;;;;5094495;28;19923;-81
2023/12/20 00:55:44;;;;;;;;;;;;;;;;;;5096038;28;19909;-80
2023/12/20 00:58:09;;;;;;;;;;;;;;;;;;5095694;28;19908;-80
2023/12/20 01:00:34;;;;;;;;;;;;;;;;;;5095608;28;19915;-80
2023/12/20 01:02:59;;;;;;;;;;;;;;;;;;5094127;28;19908;-81
2023/12/20 01:05:24;;;;;;;;;;;;;;;;;;5093823;28;19919;-80
2023/12/20 01:07:49;;;;;;;;;;;;;;;;;;5099079;28;19908;-81
2023/12/20 01:10:14;;;;;;;;;;;;;;;;;;5096822;28;20376;-81
2023/12/20 01:12:39;;;;;;;;;;;;;;;;;;5096552;28;19951;-80
2023/12/20 01:15:05;;;;;;;;;;;;;;;;;;5098307;28;19919;-79
2023/12/20 01:17:30;;;;;;;;;;;;;;;;;;5096410;28;19912;-81
2023/12/20 01:19:55;;;;;;;;;;;;;;;;;;5096717;28;19912;-81
2023/12/20 01:22:20;;;;;;;;;;;;;;;;;;5096505;28;19908;-81
2023/12/20 01:24:45;;;;;;;;;;;;;;;;;;5097887;28;19969;-81
2023/12/20 01:27:10;;;;;;;;;;;;;;;;;;5098074;28;19916;-81
2023/12/20 01:29:35;;;;;;;;;;;;;;;;;;5098602;28;19916;-81
2023/12/20 01:32:00;;;;;;;;;;;;;;;;;;5098058;28;19908;-80
2023/12/20 01:34:25;;;;;;;;;;;;;;;;;;5097990;28;19916;-80
2023/12/20 01:36:51;;;;;;;;;;;;;;;;;;5096116;28;19908;-80
2023/12/20 01:39:16;;;;;;;;;;;;;;;;;;5096350;28;20416;-80
2023/12/20 01:41:41;;;;;;;;;;;;;;;;;;5097081;28;20366;-80
2023/12/20 01:44:06;;;;;;;;;;;;;;;;;;5097270;28;20011;-80
2023/12/20 01:46:31;;;;;;;;;;;;;;;;;;5097703;28;19995;-80
2023/12/20 01:48:56;;;;;;;;;;;;;;;;;;5096103;28;19915;-80
2023/12/20 01:51:21;;;;;;;;;;;;;;;;;;5095857;28;19916;-80
2023/12/20 01:53:47;;;;;;;;;;;;;;;;;;5095457;28;19916;-80
2023/12/20 01:56:12;;;;;;;;;;;;;;;;;;5096601;28;19908;-80
2023/12/20 01:58:37;;;;;;;;;;;;;;;;;;5094746;28;20361;-81
2023/12/20 02:01:02;;;;;;;;;;;;;;;;;;5095530;28;20385;-80
2023/12/20 02:03:27;;;;;;;;;;;;;;;;;;5095783;28;19919;-81
2023/12/20 02:05:52;;;;;;;;;;;;;;;;;;5095516;28;19908;-80
2023/12/20 02:08:17;;;;;;;;;;;;;;;;;;5097231;28;19923;-80
2023/12/20 02:10:42;;;;;;;;;;;;;;;;;;5096519;28;19915;-80
2023/12/20 02:13:08;;;;;;;;;;;;;;;;;;5099475;28;20266;-80
2023/12/20 02:15:33;;;;;;;;;;;;;;;;;;5099350;28;19909;-80
2023/12/20 02:17:58;;;;;;;;;;;;;;;;;;5098894;28;19908;-80
2023/12/20 02:20:23;;;;;;;;;;;;;;;;;;5100238;28;20380;-80
2023/12/20 02:22:48;;;;;;;;;;;;;;;;;;5099413;28;19923;-80
2023/12/20 02:25:13;;;;;;;;;;;;;;;;;;5099177;28;19961;-80
2023/12/20 02:27:38;;;;;;;;;;;;;;;;;;5100980;28;19912;-80
2023/12/20 02:30:03;;;;;;;;;;;;;;;;;;5100107;28;19912;-80
2023/12/20 02:32:28;;;;;;;;;;;;;;;;;;5101227;28;20285;-80
2023/12/20 02:34:54;;;;;;;;;;;;;;;;;;5098717;28;19951;-80
2023/12/20 02:37:19;;;;;;;;;;;;;;;;;;5099814;28;19995;-81
2023/12/20 02:39:44;;;;;;;;;;;;;;;;;;5097984;28;20001;-80
2023/12/20 02:42:09;;;;;;;;;;;;;;;;;;5100004;28;19915;-80
2023/12/20 02:44:34;;;;;;;;;;;;;;;;;;5090293;28;19912;-80
2023/12/20 02:46:59;;;;;;;;;;;;;;;;;;5097975;28;19914;-80
2023/12/20 02:49:24;;;;;;;;;;;;;;;;;;5099325;28;19946;-80
2023/12/20 02:51:49;;;;;;;;;;;;;;;;;;5096527;28;19999;-79
2023/12/20 02:54:14;;;;;;;;;;;;;;;;;;5095043;28;19916;-80
2023/12/20 02:56:39;;;;;;;;;;;;;;;;;;5095922;28;19961;-79
2023/12/20 02:59:08;;;;;;;;;;;;;;;;;;5094510;28;19919;-79
2023/12/20 03:01:34;;;;;;;;;;;;;;;;;;5094312;28;19908;-79
2023/12/20 03:03:59;;;;;;;;;;;;;;;;;;5094289;28;19919;-79
2023/12/20 03:06:24;;;;;;;;;;;;;;;;;;5095759;28;19919;-79
2023/12/20 03:08:49;;;;;;;;;;;;;;;;;;5094692;28;19908;-79
2023/12/20 03:11:14;;;;;;;;;;;;;;;;;;5093982;28;20258;-79
2023/12/20 03:13:39;;;;;;;;;;;;;;;;;;5093935;28;19908;-79
2023/12/20 03:16:05;;;;;;;;;;;;;;;;;;5095639;28;19912;-79
2023/12/20 03:18:30;;;;;;;;;;;;;;;;;;5087457;28;19909;-79
2023/12/20 03:20:55;;;;;;;;;;;;;;;;;;5095414;28;19912;-80
2023/12/20 03:23:20;;;;;;;;;;;;;;;;;;5093461;28;19958;-79
2023/12/20 03:25:45;;;;;;;;;;;;;;;;;;5094365;28;19919;-79
2023/12/20 03:28:10;;;;;;;;;;;;;;;;;;5093880;28;19908;-79
2023/12/20 03:30:35;;;;;;;;;;;;;;;;;;5095250;28;19961;-79
2023/12/20 03:33:00;;;;;;;;;;;;;;;;;;5093689;28;19908;-79
2023/12/20 03:35:25;;;;;;;;;;;;;;;;;;5095078;28;19961;-79
2023/12/20 03:37:50;;;;;;;;;;;;;;;;;;5095168;28;19916;-79
2023/12/20 03:40:16;;;;;;;;;;;;;;;;;;5093571;28;19908;-79
2023/12/20 03:42:41;;;;;;;;;;;;;;;;;;5094611;28;19962;-79
2023/12/20 03:45:06;;;;;;;;;;;;;;;;;;5094400;28;19916;-79
2023/12/20 03:47:31;;;;;;;;;;;;;;;;;;5093125;28;19909;-79
2023/12/20 03:49:56;;;;;;;;;;;;;;;;;;5094436;28;20373;-78
2023/12/20 03:52:21;;;;;;;;;;;;;;;;;;5094522;28;19916;-79
2023/12/20 03:54:46;;;;;;;;;;;;;;;;;;5094556;28;19908;-79
2023/12/20 03:57:11;;;;;;;;;;;;;;;;;;5094311;28;19908;-79
2023/12/20 03:59:37;;;;;;;;;;;;;;;;;;5092908;28;19908;-79
2023/12/20 04:02:02;;;;;;;;;;;;;;;;;;5093432;28;19909;-79
2023/12/20 04:04:27;;;;;;;;;;;;;;;;;;5094357;28;19964;-79
2023/12/20 04:06:52;;;;;;;;;;;;;;;;;;5094230;28;20011;-79
2023/12/20 04:09:17;;;;;;;;;;;;;;;;;;5092643;28;20014;-79
2023/12/20 04:11:42;;;;;;;;;;;;;;;;;;5093974;28;20400;-79
2023/12/20 04:14:07;;;;;;;;;;;;;;;;;;5094287;28;19908;-78
2023/12/20 04:16:32;;;;;;;;;;;;;;;;;;5092482;28;19991;-79
2023/12/20 04:18:57;;;;;;;;;;;;;;;;;;5092425;28;20023;-79
2023/12/20 04:21:23;;;;;;;;;;;;;;;;;;5093578;28;20361;-79
2023/12/20 04:23:48;;;;;;;;;;;;;;;;;;5092431;28;19912;-79
2023/12/20 04:26:13;;;;;;;;;;;;;;;;;;5093202;28;19915;-79
2023/12/20 04:28:38;;;;;;;;;;;;;;;;;;5094332;28;19908;-79
2023/12/20 04:31:03;;;;;;;;;;;;;;;;;;5092841;28;19962;-79
2023/12/20 04:33:28;;;;;;;;;;;;;;;;;;5092597;28;19908;-79
2023/12/20 04:35:53;;;;;;;;;;;;;;;;;;5092194;28;20297;-79
2023/12/20 04:38:18;;;;;;;;;;;;;;;;;;5092482;28;19966;-79
2023/12/20 04:40:43;;;;;;;;;;;;;;;;;;5092559;28;20002;-79
2023/12/20 04:43:09;;;;;;;;;;;;;;;;;;5092606;28;20250;-79
2023/12/20 04:45:34;;;;;;;;;;;;;;;;;;5093793;28;19970;-79
2023/12/20 04:47:59;;;;;;;;;;;;;;;;;;5093605;28;19908;-79
2023/12/20 04:50:24;;;;;;;;;;;;;;;;;;5092495;28;19915;-79
2023/12/20 04:52:49;;;;;;;;;;;;;;;;;;5093628;28;19916;-79
2023/12/20 04:55:15;;;;;;;;;;;;;;;;;;5092495;28;20491;-79
2023/12/20 04:57:40;;;;;;;;;;;;;;;;;;5092509;28;19908;-80
2023/12/20 05:00:05;;;;;;;;;;;;;;;;;;5091785;28;19912;-79
2023/12/20 05:02:30;;;;;;;;;;;;;;;;;;5092425;28;19915;-79
2023/12/20 05:04:55;;;;;;;;;;;;;;;;;;5093827;28;19923;-79
2023/12/20 05:07:20;;;;;;;;;;;;;;;;;;5092431;28;19912;-79
2023/12/20 05:09:45;;;;;;;;;;;;;;;;;;5093554;28;19916;-79
2023/12/20 05:12:10;;;;;;;;;;;;;;;;;;5093374;28;19915;-79
2023/12/20 05:14:35;;;;;;;;;;;;;;;;;;5092305;28;19919;-79
2023/12/20 05:17:00;;;;;;;;;;;;;;;;;;5092017;28;19908;-79
2023/12/20 05:19:26;;;;;;;;;;;;;;;;;;5101322;28;19976;-81
2023/12/20 05:21:51;;;;;;;;;;;;;;;;;;5102039;28;19975;-81
2023/12/20 05:24:16;;;;;;;;;;;;;;;;;;5103964;28;19912;-82
2023/12/20 05:26:41;;;;;;;;;;;;;;;;;;5102621;28;19912;-82
2023/12/20 05:29:06;;;;;;;;;;;;;;;;;;5104282;28;19908;-81
2023/12/20 05:31:32;;;;;;;;;;;;;;;;;;5102873;28;20427;-81
2023/12/20 05:33:57;;;;;;;;;;;;;;;;;;5104104;28;19908;-81
2023/12/20 05:36:22;;;;;;;;;;;;;;;;;;5103111;28;20319;-81
2023/12/20 05:38:47;;;;;;;;;;;;;;;;;;5103641;28;20329;-81
2023/12/20 05:41:13;;;;;;;;;;;;;;;;;;5101973;28;19959;-81
2023/12/20 05:43:38;;;;;;;;;;;;;;;;;;5102236;28;20007;-81
2023/12/20 05:46:03;;;;;;;;;;;;;;;;;;5104671;28;19909;-81
2023/12/20 05:48:28;;;;;;;;;;;;;;;;;;5108712;28;20369;-81
2023/12/20 05:50:53;;;;;;;;;;;;;;;;;;5106392;28;19987;-81
2023/12/20 05:53:18;;;;;;;;;;;;;;;;;;5107188;28;19988;-81
2023/12/20 05:55:43;;;;;;;;;;;;;;;;;;5105943;28;19998;-81
2023/12/20 05:58:09;;;;;;;;;;;;;;;;;;5107834;28;19943;-81
2023/12/20 06:00:34;;;;;;;;;;;;;;;;;;5106335;28;19919;-81
2023/12/20 06:02:59;;;;;;;;;;;;;;;;;;5105215;28;20403;-82
2023/12/20 06:05:24;;;;;;;;;;;;;;;;;;5106917;28;19976;-82
2023/12/20 06:07:50;;;;;;;;;;;;;;;;;;5106049;28;20381;-81
2023/12/20 06:10:15;;;;;;;;;;;;;;;;;;5104767;28;19912;-80
2023/12/20 06:12:40;;;;;;;;;;;;;;;;;;5105089;28;19915;-81
2023/12/20 06:15:06;;;;;;;;;;;;;;;;;;5106895;28;19908;-81
2023/12/20 06:17:31;;;;;;;;;;;;;;;;;;5105945;28;19908;-81
2023/12/20 06:19:56;;;;;;;;;;;;;;;;;;5104962;28;19987;-81
2023/12/20 06:22:21;;;;;;;;;;;;;;;;;;5106007;28;20001;-80
2023/12/20 06:24:46;;;;;;;;;;;;;;;;;;5104414;28;19912;-81
2023/12/20 06:27:11;;;;;;;;;;;;;;;;;;5106477;28;19922;-80
2023/12/20 06:29:36;;;;;;;;;;;;;;;;;;5104144;28;19908;-81
2023/12/20 06:32:02;;;;;;;;;;;;;;;;;;5088989;28;19909;-80
2023/12/20 06:34:27;;;;;;;;;;;;;;;;;;5105003;28;19908;-80
2023/12/20 06:36:52;;;;;;;;;;;;;;;;;;5103564;28;19999;-80
2023/12/20 06:39:17;;;;;;;;;;;;;;;;;;5105001;28;19964;-80
2023/12/20 06:41:43;;;;;;;;;;;;;;;;;;5105331;28;20437;-81
2023/12/20 06:44:08;;;;;;;;;;;;;;;;;;5105469;28;20014;-81
2023/12/20 06:46:33;;;;;;;;;;;;;;;;;;5105908;28;19995;-80
2023/12/20 06:48:58;;;;;;;;;;;;;;;;;;5104521;28;19961;-81
2023/12/20 06:51:25;;;;;;;;;;;;;;;;;;5103203;28;19909;-80
2023/12/20 06:53:50;;;;;;;;;;;;;;;;;;5105401;28;19912;-80
2023/12/20 06:56:17;;;;;;;;;;;;;;;;;;5103874;28;20415;-81
2023/12/20 06:58:42;;;;;;;;;;;;;;;;;;5102644;28;19908;-80
2023/12/20 07:01:07;;;;;;;;;;;;;;;;;;5103020;28;19908;-80
2023/12/20 07:03:32;;;;;;;;;;;;;;;;;;5103691;28;19939;-80
2023/12/20 07:05:58;;;;;;;;;;;;;;;;;;5104793;28;19951;-81
2023/12/20 07:08:23;;;;;;;;;;;;;;;;;;5103242;28;19931;-80
2023/12/20 07:10:48;;;;;;;;;;;;;;;;;;5104985;28;19908;-81
2023/12/20 07:13:13;;;;;;;;;;;;;;;;;;5102920;28;19916;-81
2023/12/20 07:15:39;;;;;;;;;;;;;;;;;;5105504;28;19931;-80
2023/12/20 07:18:05;;;;;;;;;;;;;;;;;;5103326;28;19916;-79
2023/12/20 07:20:30;;;;;;;;;;;;;;;;;;5102645;28;20042;-80
2023/12/20 07:22:55;;;;;;;;;;;;;;;;;;5104415;28;19912;-80
2023/12/20 07:25:20;;;;;;;;;;;;;;;;;;5102626;28;19989;-81
2023/12/20 07:27:45;;;;;;;;;;;;;;;;;;5102817;28;19951;-80
2023/12/20 07:30:10;;;;;;;;;;;;;;;;;;5103011;28;19919;-81
2023/12/20 07:32:35;;;;;;;;;;;;;;;;;;5102070;28;19912;-80
2023/12/20 07:35:00;;;;;;;;;;;;;;;;;;5102627;28;20309;-81
2023/12/20 07:37:26;;;;;;;;;;;;;;;;;;5101257;28;19919;-80
2023/12/20 07:39:51;;;;;;;;;;;;;;;;;;5101404;28;19908;-80
2023/12/20 07:42:16;;;;;;;;;;;;;;;;;;5101980;28;19931;-80
2023/12/20 07:44:41;;;;;;;;;;;;;;;;;;5101792;28;20407;-80
2023/12/20 07:47:06;;;;;;;;;;;;;;;;;;5102320;28;19968;-80
2023/12/20 07:49:32;;;;;;;;;;;;;;;;;;5101437;28;19908;-80
2023/12/20 07:51:57;;;;;;;;;;;;;;;;;;5100299;28;19916;-80
2023/12/20 07:54:22;;;;;;;;;;;;;;;;;;5103105;28;19930;-80
2023/12/20 07:56:47;;;;;;;;;;;;;;;;;;5101633;28;19934;-80
2023/12/20 07:59:12;;;;;;;;;;;;;;;;;;5100422;28;19908;-80
2023/12/20 08:01:37;;;;;;;;;;;;;;;;;;5096497;28;20309;-80
2023/12/20 08:04:02;;;;;;;;;;;;;;;;;;5103241;28;19912;-81
2023/12/20 08:06:27;;;;;;;;;;;;;;;;;;5102589;28;19908;-80
2023/12/20 08:08:52;;;;;;;;;;;;;;;;;;5103678;28;19915;-80
2023/12/20 08:11:17;;;;;;;;;;;;;;;;;;5103518;28;19908;-80
2023/12/20 08:13:43;;;;;;;;;;;;;;;;;;5097494;28;19913;-80
2023/12/20 08:16:08;;;;;;;;;;;;;;;;;;5099921;28;19916;-80
2023/12/20 08:18:33;;;;;;;;;;;;;;;;;;5100730;28;19915;-80
2023/12/20 08:20:58;;;;;;;;;;;;;;;;;;5102651;28;19908;-81
2023/12/20 08:23:24;;;;;;;;;;;;;;;;;;5094567;28;19943;-81
2023/12/20 08:25:49;;;;;;;;;;;;;;;;;;5104382;28;19908;-81
2023/12/20 08:28:14;;;;;;;;;;;;;;;;;;5102845;28;19908;-81
2023/12/20 08:30:39;;;;;;;;;;;;;;;;;;5101706;28;19908;-80
2023/12/20 08:33:04;;;;;;;;;;;;;;;;;;5102464;28;20385;-80
2023/12/20 08:35:30;;;;;;;;;;;;;;;;;;5102947;28;19908;-80
2023/12/20 08:37:55;;;;;;;;;;;;;;;;;;5101528;28;19919;-80
2023/12/20 08:40:20;;;;;;;;;;;;;;;;;;5101799;28;19908;-79
2023/12/20 08:42:46;;;;;;;;;;;;;;;;;;5101150;28;20281;-80
2023/12/20 08:45:11;;;;;;;;;;;;;;;;;;5100892;28;19955;-81
2023/12/20 08:47:36;;;;;;;;;;;;;;;;;;5092722;28;19912;-81
2023/12/20 08:50:01;;;;;;;;;;;;;;;;;;5102836;28;19967;-81
2023/12/20 08:52:27;;;;;;;;;;;;;;;;;;5101025;28;19987;-80
2023/12/20 08:54:53;;;;;;;;;;;;;;;;;;5101178;28;19915;-80
2023/12/20 08:57:18;;;;;;;;;;;;;;;;;;5100934;28;19908;-80
2023/12/20 08:59:43;;;;;;;;;;;;;;;;;;5101555;28;19957;-81
2023/12/20 09:02:09;;;;;;;;;;;;;;;;;;5101900;28;19975;-80
2023/12/20 09:04:34;;;;;;;;;;;;;;;;;;5101659;28;20284;-80
2023/12/20 09:06:59;;;;;;;;;;;;;;;;;;5101378;28;19915;-81
2023/12/20 09:09:24;;;;;;;;;;;;;;;;;;5100018;28;19908;-80
2023/12/20 09:11:51;;;;;;;;;;;;;;;;;;5100043;28;19927;-81
2023/12/20 09:14:16;;;;;;;;;;;;;;;;;;5100108;28;19912;-80
2023/12/20 09:16:41;;;;;;;;;;;;;;;;;;5101634;28;19909;-81
2023/12/20 09:19:06;;;;;;;;;;;;;;;;;;5101168;28;19912;-80
2023/12/20 09:21:31;;;;;;;;;;;;;;;;;;5099516;28;20415;-81
2023/12/20 09:23:56;;;;;;;;;;;;;;;;;;5102191;28;19912;-80
2023/12/20 09:26:21;;;;;;;;;;;;;;;;;;5100206;28;20007;-80
2023/12/20 09:28:47;;;;;;;;;;;;;;;;;;5102196;28;19995;-80
2023/12/20 09:31:12;;;;;;;;;;;;;;;;;;5100207;28;19994;-80
2023/12/20 09:33:37;;;;;;;;;;;;;;;;;;5101033;28;19958;-80
2023/12/20 09:36:03;;;;;;;;;;;;;;;;;;5102095;28;19951;-80
2023/12/20 09:38:28;;;;;;;;;;;;;;;;;;5100781;28;20424;-80
2023/12/20 09:40:55;;;;;;;;;;;;;;;;;;5099741;28;19999;-80
2023/12/20 09:43:20;;;;;;;;;;;;;;;;;;5099503;28;19908;-81
2023/12/20 09:45:45;;;;;;;;;;;;;;;;;;5099756;28;19922;-80
2023/12/20 09:48:10;;;;;;;;;;;;;;;;;;5099609;28;19908;-80
2023/12/20 09:50:35;;;;;;;;;;;;;;;;;;5100091;28;20036;-80
2023/12/20 09:53:01;;;;;;;;;;;;;;;;;;5100027;28;19923;-81
2023/12/20 09:55:26;;;;;;;;;;;;;;;;;;5101446;28;19934;-81
2023/12/20 09:57:51;;;;;;;;;;;;;;;;;;5099851;28;20362;-80
2023/12/20 10:00:17;;;;;;;;;;;;;;;;;;5101106;28;19915;-79
2023/12/20 10:02:42;;;;;;;;;;;;;;;;;;5098586;28;19908;-80
2023/12/20 10:05:08;;;;;;;;;;;;;;;;;;5100235;28;19926;-80
2023/12/20 10:07:33;;;;;;;;;;;;;;;;;;5098698;28;19908;-80
2023/12/20 10:09:58;;;;;;;;;;;;;;;;;;5098248;28;19994;-80
2023/12/20 10:12:23;;;;;;;;;;;;;;;;;;5089884;28;20453;-81
2023/12/20 10:14:48;;;;;;;;;;;;;;;;;;5099081;28;19948;-80
2023/12/20 10:17:14;;;;;;;;;;;;;;;;;;5098917;28;19916;-80
2023/12/20 10:19:39;;;;;;;;;;;;;;;;;;5100941;28;19912;-80
2023/12/20 10:22:04;;;;;;;;;;;;;;;;;;5099706;28;19912;-79
2023/12/20 10:24:29;;;;;;;;;;;;;;;;;;5100398;28;19943;-81
2023/12/20 10:26:54;;;;;;;;;;;;;;;;;;5098920;28;19961;-80
2023/12/20 10:29:20;;;;;;;;;;;;;;;;;;5099179;28;20301;-80
2023/12/20 10:31:45;;;;;;;;;;;;;;;;;;5099177;28;19943;-80
2023/12/20 10:34:10;;;;;;;;;;;;;;;;;;5102244;28;20002;-80
2023/12/20 10:36:36;;;;;;;;;;;;;;;;;;5103709;28;20100;-80
2023/12/20 10:39:01;;;;;;;;;;;;;;;;;;5103411;28;20374;-81
2023/12/20 10:41:27;;;;;;;;;;;;;;;;;;5102459;28;19922;-80
2023/12/20 10:43:52;;;;;;;;;;;;;;;;;;5101064;28;19919;-80
2023/12/20 10:46:18;;;;;;;;;;;;;;;;;;5101388;28;19908;-80
2023/12/20 10:48:44;;;;;;;;;;;;;;;;;;5101998;28;19908;-80
2023/12/20 10:51:09;;;;;;;;;;;;;;;;;;5101867;28;19908;-80
2023/12/20 10:53:34;;;;;;;;;;;;;;;;;;5102758;28;20000;-80
2023/12/20 10:55:59;;;;;;;;;;;;;;;;;;5100301;28;19931;-82
2023/12/20 10:58:24;;;;;;;;;;;;;;;;;;5101753;28;19926;-80
2023/12/20 11:00:49;;;;;;;;;;;;;;;;;;5099548;28;19908;-80
2023/12/20 11:03:14;;;;;;;;;;;;;;;;;;5099622;28;19965;-80
2023/12/20 11:05:39;;;;;;;;;;;;;;;;;;5099019;28;19980;-80
2023/12/20 11:08:04;;;;;;;;;;;;;;;;;;5099816;28;19957;-80
2023/12/20 11:10:30;;;;;;;;;;;;;;;;;;5098016;28;19961;-81
2023/12/20 11:12:55;;;;;;;;;;;;;;;;;;5099144;28;19908;-81
2023/12/20 11:15:20;;;;;;;;;;;;;;;;;;5101809;28;19930;-81
2023/12/20 11:17:46;;;;;;;;;;;;;;;;;;5101406;28;19912;-80
2023/12/20 11:20:12;;;;;;;;;;;;;;;;;;5102877;28;19908;-80
2023/12/20 11:22:38;;;;;;;;;;;;;;;;;;5102389;28;20361;-80
2023/12/20 11:25:03;;;;;;;;;;;;;;;;;;5100052;28;19912;-80
2023/12/20 11:27:28;;;;;;;;;;;;;;;;;;5094849;28;20007;-80
2023/12/20 11:29:53;;;;;;;;;;;;;;;;;;5102842;28;19915;-80
2023/12/20 11:32:18;;;;;;;;;;;;;;;;;;5103065;28;19908;-81
2023/12/20 11:34:43;;;;;;;;;;;;;;;;;;5104372;28;19994;-81
2023/12/20 11:37:09;;;;;;;;;;;;;;;;;;5102422;28;19943;-79
2023/12/20 11:39:34;;;;;;;;;;;;;;;;;;5101079;28;19909;-80
2023/12/20 11:41:59;;;;;;;;;;;;;;;;;;5102024;28;19908;-81
2023/12/20 11:44:24;;;;;;;;;;;;;;;;;;5100745;28;19918;-81
2023/12/20 11:46:49;;;;;;;;;;;;;;;;;;5102317;28;19940;-81
2023/12/20 11:49:14;;;;;;;;;;;;;;;;;;5101864;28;20018;-81
2023/12/20 11:51:39;;;;;;;;;;;;;;;;;;5100681;28;19912;-80
2023/12/20 11:54:04;;;;;;;;;;;;;;;;;;5102274;28;19971;-80
2023/12/20 11:56:29;;;;;;;;;;;;;;;;;;5102416;28;20487;-80
2023/12/20 11:58:55;;;;;;;;;;;;;;;;;;5100149;28;19908;-81
2023/12/20 12:01:20;;;;;;;;;;;;;;;;;;5100232;28;19909;-81
2023/12/20 12:03:46;;;;;;;;;;;;;;;;;;5101313;28;19923;-80
2023/12/20 12:06:11;;;;;;;;;;;;;;;;;;5101848;28;19908;-80
2023/12/20 12:08:37;;;;;;;;;;;;;;;;;;5099566;28;19919;-80
2023/12/20 12:11:02;;;;;;;;;;;;;;;;;;5098260;28;19912;-82
2023/12/20 12:13:27;;;;;;;;;;;;;;;;;;5101946;28;19991;-82
2023/12/20 12:15:52;;;;;;;;;;;;;;;;;;5101151;28;19908;-81
2023/12/20 12:18:17;;;;;;;;;;;;;;;;;;5102864;28;19939;-81
2023/12/20 12:20:42;;;;;;;;;;;;;;;;;;5103444;28;20393;-82
2023/12/20 12:23:08;;;;;;;;;;;;;;;;;;5100142;28;20381;-82
2023/12/20 12:25:33;;;;;;;;;;;;;;;;;;5100358;28;19967;-83
2023/12/20 12:27:58;;;;;;;;;;;;;;;;;;5102386;28;20354;-82
2023/12/20 12:30:23;;;;;;;;;;;;;;;;;;5100089;28;19909;-82
2023/12/20 12:32:49;;;;;;;;;;;;;;;;;;5101707;28;20020;-81
2023/12/20 12:35:14;;;;;;;;;;;;;;;;;;5101753;28;20340;-82
2023/12/20 12:37:42;;;;;;;;;;;;;;;;;;5099634;28;19969;-82
2023/12/20 12:40:07;;;;;;;;;;;;;;;;;;5100201;28;19911;-83
2023/12/20 12:42:32;;;;;;;;;;;;;;;;;;5098551;28;19961;-83
2023/12/20 12:44:57;;;;;;;;;;;;;;;;;;5098776;28;19935;-82
2023/12/20 12:47:22;;;;;;;;;;;;;;;;;;5100238;28;19908;-82
2023/12/20 12:49:48;;;;;;;;;;;;;;;;;;5100508;28;20346;-83
2023/12/20 12:52:13;;;;;;;;;;;;;;;;;;5099762;28;19937;-82
2023/12/20 12:54:38;;;;;;;;;;;;;;;;;;5100568;28;19908;-81
2023/12/20 12:57:03;;;;;;;;;;;;;;;;;;5100747;28;20273;-81
2023/12/20 12:59:28;;;;;;;;;;;;;;;;;;5098396;28;19908;-82
2023/12/20 13:01:53;;;;;;;;;;;;;;;;;;5098290;28;19908;-82
2023/12/20 13:04:18;;;;;;;;;;;;;;;;;;5099789;28;20015;-81
2023/12/20 13:06:43;;;;;;;;;;;;;;;;;;5099811;28;20344;-81
2023/12/20 13:09:09;;;;;;;;;;;;;;;;;;5099958;28;20010;-82
2023/12/20 13:11:34;;;;;;;;;;;;;;;;;;5098201;28;19951;-81
2023/12/20 13:14:00;;;;;;;;;;;;;;;;;;5098411;28;20289;-82
2023/12/20 13:16:25;;;;;;;;;;;;;;;;;;5099880;28;20469;-81
2023/12/20 13:18:50;;;;;;;;;;;;;;;;;;5099705;28;19915;-81
2023/12/20 13:21:15;;;;;;;;;;;;;;;;;;5099796;28;19908;-81
2023/12/20 13:23:41;;;;;;;;;;;;;;;;;;5098093;28;19909;-81
2023/12/20 13:26:07;;;;;;;;;;;;;;;;;;5094787;28;19962;-81
2023/12/20 13:28:32;;;;;;;;;;;;;;;;;;5093274;28;19912;-82
2023/12/20 13:30:57;;;;;;;;;;;;;;;;;;5093364;28;19916;-81
2023/12/20 13:33:22;;;;;;;;;;;;;;;;;;5094244;28;19908;-81
2023/12/20 13:35:47;;;;;;;;;;;;;;;;;;5092840;28;19908;-82
2023/12/20 13:38:12;;;;;;;;;;;;;;;;;;5095125;28;19908;-81
2023/12/20 13:40:37;;;;;;;;;;;;;;;;;;5094692;28;19916;-82
2023/12/20 13:43:03;;;;;;;;;;;;;;;;;;5092787;28;19912;-81
2023/12/20 13:45:28;;;;;;;;;;;;;;;;;;5092853;28;19912;-82
2023/12/20 13:47:53;;;;;;;;;;;;;;;;;;5093390;28;20392;-81
2023/12/20 13:50:18;;;;;;;;;;;;;;;;;;5092230;28;19916;-82
2023/12/20 13:52:43;;;;;;;;;;;;;;;;;;5093829;28;19916;-81
2023/12/20 13:55:08;;;;;;;;;;;;;;;;;;5093275;28;20362;-81
2023/12/20 13:57:33;;;;;;;;;;;;;;;;;;5093401;28;19912;-81
2023/12/20 13:59:59;;;;;;;;;;;;;;;;;;5092158;28;19912;-81
2023/12/20 14:02:24;;;;;;;;;;;;;;;;;;5091995;28;19915;-81
2023/12/20 14:04:49;;;;;;;;;;;;;;;;;;5093707;28;19979;-81
2023/12/20 14:07:14;;;;;;;;;;;;;;;;;;5093731;28;19908;-82
2023/12/20 14:09:39;;;;;;;;;;;;;;;;;;5096970;28;19995;-81
2023/12/20 14:12:05;;;;;;;;;;;;;;;;;;5097236;28;19919;-82
2023/12/20 14:14:30;;;;;;;;;;;;;;;;;;5097393;28;19986;-81
2023/12/20 14:16:55;;;;;;;;;;;;;;;;;;5095711;28;19908;-81
2023/12/20 14:19:20;;;;;;;;;;;;;;;;;;5095028;28;19923;-81
2023/12/20 14:21:45;;;;;;;;;;;;;;;;;;5096499;28;19909;-81
2023/12/20 14:24:10;;;;;;;;;;;;;;;;;;5095121;28;19916;-81
2023/12/20 14:26:37;;;;;;;;;;;;;;;;;;5095409;28;20429;-81
2023/12/20 14:29:03;;;;;;;;;;;;;;;;;;5096517;28;19908;-81
2023/12/20 14:31:29;;;;;;;;;;;;;;;;;;5095842;28;19908;-77
2023/12/20 14:33:54;;;;;;;;;;;;;;;;;;5095706;28;20332;-81
2023/12/20 14:36:20;;;;;;;;;;;;;;;;;;5094982;28;20297;-81
2023/12/20 14:38:46;;;;;;;;;;;;;;;;;;5094944;28;19951;-82
2023/12/20 14:41:11;;;;;;;;;;;;;;;;;;5094425;28;19908;-81
2023/12/20 14:43:37;;;;;;;;;;;;;;;;;;5094672;28;19923;-81
2023/12/20 14:46:02;;;;;;;;;;;;;;;;;;5094705;28;19908;-81
2023/12/20 14:48:28;;;;;;;;;;;;;;;;;;5094612;28;20250;-81
2023/12/20 14:50:53;;;;;;;;;;;;;;;;;;5095747;28;20328;-81
2023/12/20 14:53:18;;;;;;;;;;;;;;;;;;5094701;28;19916;-81
2023/12/20 14:55:44;;;;;;;;;;;;;;;;;;5096325;28;19916;-81
2023/12/20 14:58:09;;;;;;;;;;;;;;;;;;5095616;28;19909;-81
2023/12/20 15:00:34;;;;;;;;;;;;;;;;;;5094162;28;19908;-81
2023/12/20 15:02:59;;;;;;;;;;;;;;;;;;5095664;28;20409;-80
2023/12/20 15:05:24;;;;;;;;;;;;;;;;;;5087235;28;19912;-81
2023/12/20 15:07:49;;;;;;;;;;;;;;;;;;5099416;28;19908;-81
2023/12/20 15:10:16;;;;;;;;;;;;;;;;;;5100022;28;20109;-82
2023/12/20 15:12:41;;;;;;;;;;;;;;;;;;5100662;28;19919;-81
2023/12/20 15:15:09;;;;;;;;;;;;;;;;;;5101174;28;20385;-82
2023/12/20 15:17:35;;;;;;;;;;;;;;;;;;5100573;28;19908;-81
2023/12/20 15:20:00;;;;;;;;;;;;;;;;;;5099546;28;19916;-81
2023/12/20 15:22:26;;;;;;;;;;;;;;;;;;5101598;28;19908;-81
2023/12/20 15:24:53;;;;;;;;;;;;;;;;;;5093281;28;19912;-81
2023/12/20 15:27:18;;;;;;;;;;;;;;;;;;5100525;28;20007;-81
2023/12/20 15:29:44;;;;;;;;;;;;;;;;;;5099644;28;19993;-82
2023/12/20 15:32:09;;;;;;;;;;;;;;;;;;5101045;28;19908;-81
2023/12/20 15:34:34;;;;;;;;;;;;;;;;;;5099627;28;20284;-81
2023/12/20 15:36:59;;;;;;;;;;;;;;;;;;5100125;28;19908;-81
2023/12/20 15:39:25;;;;;;;;;;;;;;;;;;5092081;28;19930;-80
2023/12/20 15:41:50;;;;;;;;;;;;;;;;;;5101618;28;19942;-82
2023/12/20 15:44:15;;;;;;;;;;;;;;;;;;5099938;28;20002;-81
2023/12/20 15:46:40;;;;;;;;;;;;;;;;;;5099635;28;19939;-81
2023/12/20 15:49:05;;;;;;;;;;;;;;;;;;5099883;28;19908;-81
2023/12/20 15:51:30;;;;;;;;;;;;;;;;;;5099375;28;19915;-81
2023/12/20 15:53:57;;;;;;;;;;;;;;;;;;5099341;28;19915;-81
2023/12/20 15:56:22;;;;;;;;;;;;;;;;;;5098633;28;19930;-81
2023/12/20 15:58:48;;;;;;;;;;;;;;;;;;5099638;28;20373;-81
2023/12/20 16:01:13;;;;;;;;;;;;;;;;;;5098919;28;20383;-81
2023/12/20 16:03:38;;;;;;;;;;;;;;;;;;5098494;28;20281;-81
2023/12/20 16:06:03;;;;;;;;;;;;;;;;;;5099808;28;19908;-82
2023/12/20 16:08:28;;;;;;;;;;;;;;;;;;5101267;28;20177;-81
2023/12/20 16:10:54;;;;;;;;;;;;;;;;;;5099047;28;19919;-81
2023/12/20 16:13:20;;;;;;;;;;;;;;;;;;5101462;28;20493;-81
2023/12/20 16:15:45;;;;;;;;;;;;;;;;;;5093922;28;19976;-81
2023/12/20 16:18:11;;;;;;;;;;;;;;;;;;5091611;28;19950;-81
2023/12/20 16:20:36;;;;;;;;;;;;;;;;;;5099491;28;20004;-81
2023/12/20 16:23:01;;;;;;;;;;;;;;;;;;5095040;28;19931;-81
2023/12/20 16:25:26;;;;;;;;;;;;;;;;;;5095020;28;20381;-81
2023/12/20 16:27:51;;;;;;;;;;;;;;;;;;5095313;28;19908;-81
2023/12/20 16:30:16;;;;;;;;;;;;;;;;;;5095068;28;19912;-81